createdAt,value
2022-11-05T00:02:33.892Z,98208.72
2022-11-05T00:05:32.163Z,98177.22
2022-11-05T00:08:21.153Z,98188.66
2022-11-05T00:10:49.626Z,98179.03
2022-11-05T00:13:35.586Z,98167.59
2022-11-05T00:16:35.543Z,98120.13
2022-11-05T00:19:10.131Z,98152.47
2022-11-05T00:22:12.340Z,98144.72
2022-11-05T00:24:57.728Z,98146.81
2022-11-05T00:27:25.728Z,98151.78
2022-11-05T00:29:53.716Z,98156.13
2022-11-05T00:32:23.219Z,98145.41
2022-11-05T00:34:51.148Z,98135.22
2022-11-05T00:37:20.596Z,98150.91
2022-11-05T00:39:48.652Z,98127.88
2022-11-05T00:42:34.095Z,98147.94
2022-11-05T00:45:02.088Z,98142.56
2022-11-05T00:47:47.844Z,98126.16
2022-11-05T00:50:16.218Z,98132.38
2022-11-05T00:52:57.981Z,98119.66
2022-11-05T00:55:33.309Z,98143.38
2022-11-05T00:58:02.414Z,98125.31
2022-11-05T01:00:31.798Z,98126.16
2022-11-05T01:03:01.797Z,98092.53
2022-11-05T01:05:31.912Z,99164.00
2022-11-05T01:08:02.254Z,99853.09
2022-11-05T01:10:31.085Z,99907.25
2022-11-05T01:12:59.294Z,99930.03
2022-11-05T01:15:27.621Z,99960.72
2022-11-05T01:17:55.713Z,99950.56
2022-11-05T01:20:23.844Z,99959.41
2022-11-05T01:22:51.963Z,99949.72
2022-11-05T01:25:21.918Z,99940.22
2022-11-05T01:27:49.920Z,99945.38
2022-11-05T01:30:18.359Z,99946.34
2022-11-05T01:32:46.384Z,99914.97
2022-11-05T01:35:16.423Z,99928.22
2022-11-05T01:37:44.989Z,99944.00
2022-11-05T01:40:14.780Z,99956.47
2022-11-05T01:42:44.547Z,99960.31
2022-11-05T01:45:16.368Z,99920.88
2022-11-05T01:47:51.429Z,99980.38
2022-11-05T01:50:27.942Z,99908.59
2022-11-05T01:53:03.741Z,99903.25
2022-11-05T01:55:36.855Z,99918.19
2022-11-05T01:58:08.495Z,99896.94
2022-11-05T02:00:37.371Z,99901.44
2022-11-05T02:03:05.889Z,99874.19
2022-11-05T02:05:35.226Z,99863.66
2022-11-05T02:08:04.147Z,99872.47
2022-11-05T02:10:33.298Z,99873.44
2022-11-05T02:13:01.559Z,99884.06
2022-11-05T02:15:41.196Z,99870.91
2022-11-05T02:18:21.422Z,99878.09
2022-11-05T02:20:59.276Z,99860.47
2022-11-05T02:23:47.653Z,99842.94
2022-11-05T02:26:49.488Z,99850.88
2022-11-05T02:29:44.266Z,99847.31
2022-11-05T02:32:21.825Z,99788.69
2022-11-05T02:34:57.625Z,99793.94
2022-11-05T02:37:38.384Z,99799.41
2022-11-05T02:40:16.627Z,99800.44
2022-11-05T02:42:53.181Z,99805.91
2022-11-05T02:45:33.521Z,99843.84
2022-11-05T02:48:11.891Z,99841.25
2022-11-05T02:50:50.283Z,99825.81
2022-11-05T02:53:29.367Z,99831.06
2022-11-05T02:56:02.391Z,99854.75
2022-11-05T02:58:30.963Z,99863.63
2022-11-05T03:01:00.348Z,99893.28
2022-11-05T03:03:34.688Z,99868.94
2022-11-05T03:06:19.556Z,99904.09
2022-11-05T03:09:03.889Z,99836.63
2022-11-05T03:11:37.296Z,99876.00
2022-11-05T03:14:20.805Z,99864.50
2022-11-05T03:16:56.326Z,99858.53
2022-11-05T03:19:36.187Z,99861.31
2022-11-05T03:22:11.141Z,99886.06
2022-11-05T03:24:43.798Z,99885.09
2022-11-05T03:27:15.383Z,99907.13
2022-11-05T03:29:48.536Z,99912.50
2022-11-05T03:32:18.838Z,99901.09
2022-11-05T03:34:52.543Z,99915.09
2022-11-05T03:37:24.215Z,99910.75
2022-11-05T03:39:55.331Z,99930.28
2022-11-05T03:42:28.001Z,99929.47
2022-11-05T03:45:00.171Z,99914.84
2022-11-05T03:47:32.990Z,99966.53
2022-11-05T03:50:11.965Z,99965.75
2022-11-05T03:52:47.706Z,99948.47
2022-11-05T03:55:16.670Z,99995.00
2022-11-05T03:57:49.971Z,99946.75
2022-11-05T04:00:22.686Z,99995.94
2022-11-05T04:02:51.252Z,99972.16
2022-11-05T04:05:20.676Z,99944.94
2022-11-05T04:08:08.768Z,99938.97
2022-11-05T04:11:00.398Z,99926.97
2022-11-05T04:13:28.808Z,99968.19
2022-11-05T04:16:15.522Z,99982.47
2022-11-05T04:18:44.013Z,100013.25
2022-11-05T04:21:30.649Z,99998.28
2022-11-05T04:24:11.045Z,100010.56
2022-11-05T04:26:40.487Z,100009.69
2022-11-05T04:29:27.010Z,99996.53
2022-11-05T04:31:55.238Z,100022.84
2022-11-05T04:34:24.609Z,100004.53
2022-11-05T04:36:54.189Z,99999.31
2022-11-05T04:39:22.616Z,100025.78
2022-11-05T04:41:51.115Z,100023.09
2022-11-05T04:44:19.013Z,100008.13
2022-11-05T04:46:47.323Z,99988.06
2022-11-05T04:49:15.280Z,99971.47
2022-11-05T04:51:43.468Z,99990.84
2022-11-05T04:54:12.965Z,100002.44
2022-11-05T04:56:41.110Z,100035.81
2022-11-05T04:59:09.199Z,100034.16
2022-11-05T05:01:37.405Z,100036.69
2022-11-05T05:04:05.768Z,100039.19
2022-11-05T05:06:33.828Z,100016.44
2022-11-05T05:09:01.696Z,100020.97
2022-11-05T05:11:31.018Z,100030.56
2022-11-05T05:13:58.914Z,99989.66
2022-11-05T05:16:28.559Z,99994.03
2022-11-05T05:18:56.561Z,100000.38
2022-11-05T05:21:38.916Z,100046.13
2022-11-05T05:24:09.186Z,100048.06
2022-11-05T05:26:39.418Z,100060.53
2022-11-05T05:29:07.862Z,100063.31
2022-11-05T05:31:35.905Z,100071.25
2022-11-05T05:34:04.166Z,100080.97
2022-11-05T05:36:32.748Z,100044.09
2022-11-05T05:39:00.829Z,100063.47
2022-11-05T05:41:28.909Z,100067.97
2022-11-05T05:43:58.430Z,100062.25
2022-11-05T05:46:26.895Z,100047.88
2022-11-05T05:48:55.152Z,100050.75
2022-11-05T05:51:23.150Z,100069.41
2022-11-05T05:53:51.123Z,100073.84
2022-11-05T05:56:20.566Z,100081.94
2022-11-05T05:58:49.051Z,100064.31
2022-11-05T06:01:20.106Z,100078.66
2022-11-05T06:03:49.176Z,100101.56
2022-11-05T06:06:20.874Z,100121.81
2022-11-05T06:08:49.359Z,100086.53
2022-11-05T06:11:17.678Z,100107.91
2022-11-05T06:13:46.269Z,100118.44
2022-11-05T06:16:14.255Z,100114.28
2022-11-05T06:18:43.817Z,100118.63
2022-11-05T06:21:14.139Z,100125.69
2022-11-05T06:23:44.256Z,100098.59
2022-11-05T06:26:14.091Z,100096.88
2022-11-05T06:28:42.491Z,100109.16
2022-11-05T06:31:21.505Z,100102.25
2022-11-05T06:33:53.929Z,100131.25
2022-11-05T06:36:22.314Z,100150.94
2022-11-05T06:38:50.502Z,100145.72
2022-11-05T06:41:18.706Z,100133.38
2022-11-05T06:43:46.957Z,100135.97
2022-11-05T06:46:15.442Z,100133.44
2022-11-05T06:48:43.705Z,100109.97
2022-11-05T06:51:13.103Z,100188.28
2022-11-05T06:53:41.405Z,100210.53
2022-11-05T06:56:09.911Z,100205.41
2022-11-05T06:58:38.122Z,100198.59
2022-11-05T07:01:09.121Z,100232.09
2022-11-05T07:03:40.260Z,100256.88
2022-11-05T07:06:09.033Z,100231.47
2022-11-05T07:08:40.379Z,100255.03
2022-11-05T07:11:08.411Z,100266.31
2022-11-05T07:13:36.491Z,100236.53
2022-11-05T07:16:04.711Z,100256.88
2022-11-05T07:18:32.759Z,100263.06
2022-11-05T07:21:01.153Z,100260.47
2022-11-05T07:23:29.293Z,100289.81
2022-11-05T07:26:00.435Z,100339.97
2022-11-05T07:28:28.550Z,100362.13
2022-11-05T07:30:56.626Z,100378.75
2022-11-05T07:33:24.640Z,100412.34
2022-11-05T07:35:52.723Z,100405.19
2022-11-05T07:38:21.110Z,100418.34
2022-11-05T07:40:49.380Z,100444.72
2022-11-05T07:43:18.710Z,100471.72
2022-11-05T07:45:47.046Z,100470.91
2022-11-05T07:48:14.961Z,100486.72
2022-11-05T07:50:42.952Z,100463.84
2022-11-05T07:53:13.085Z,100515.69
2022-11-05T07:55:41.997Z,100500.78
2022-11-05T07:58:10.742Z,100529.09
2022-11-05T08:00:40.441Z,100555.72
2022-11-05T08:03:11.860Z,100579.31
2022-11-05T08:05:44.543Z,100603.97
2022-11-05T08:08:14.147Z,100636.28
2022-11-05T08:10:42.826Z,100665.06
2022-11-05T08:13:13.345Z,100727.03
2022-11-05T08:15:43.549Z,100676.22
2022-11-05T08:18:13.895Z,100683.25
2022-11-05T08:20:43.529Z,100684.41
2022-11-05T08:23:12.108Z,100652.13
2022-11-05T08:25:40.804Z,100613.97
2022-11-05T08:28:13.107Z,100573.97
2022-11-05T08:30:42.916Z,100595.63
2022-11-05T08:33:13.666Z,100534.78
2022-11-05T08:35:42.972Z,100576.81
2022-11-05T08:38:14.083Z,100599.72
2022-11-05T08:40:43.302Z,100572.34
2022-11-05T08:43:13.751Z,100555.59
2022-11-05T08:45:43.891Z,100600.34
2022-11-05T08:48:14.990Z,100595.75
2022-11-05T08:50:43.638Z,100625.19
2022-11-05T08:53:12.738Z,100611.50
2022-11-05T08:55:41.095Z,100701.38
2022-11-05T08:58:12.647Z,100695.13
2022-11-05T09:00:41.348Z,100736.00
2022-11-05T09:03:11.794Z,100780.38
2022-11-05T09:05:41.562Z,100622.84
2022-11-05T09:08:11.206Z,100699.31
2022-11-05T09:10:39.773Z,100699.19
2022-11-05T09:13:13.058Z,100750.56
2022-11-05T09:15:51.053Z,100712.09
2022-11-05T09:18:22.845Z,100725.78
2022-11-05T09:20:50.969Z,100734.47
2022-11-05T09:23:19.183Z,100781.72
2022-11-05T09:25:48.051Z,100827.25
2022-11-05T09:28:18.661Z,100850.78
2022-11-05T09:30:48.644Z,100874.34
2022-11-05T09:33:17.994Z,100735.63
2022-11-05T09:35:47.804Z,100723.28
2022-11-05T09:38:15.968Z,100839.31
2022-11-05T09:40:51.953Z,100833.31
2022-11-05T09:43:30.282Z,100745.44
2022-11-05T09:46:09.655Z,100716.63
2022-11-05T09:48:40.539Z,100700.84
2022-11-05T09:51:20.847Z,100649.13
2022-11-05T09:53:51.825Z,100666.72
2022-11-05T09:56:23.904Z,100680.09
2022-11-05T09:58:59.490Z,100693.31
2022-11-05T10:01:35.500Z,100687.25
2022-11-05T10:04:08.608Z,100687.25
2022-11-05T10:06:44.663Z,100737.25
2022-11-05T10:09:19.218Z,100705.63
2022-11-05T10:11:51.264Z,100713.72
2022-11-05T10:14:24.548Z,100686.53
2022-11-05T10:16:57.340Z,100711.91
2022-11-05T10:19:32.360Z,100747.97
2022-11-05T10:22:11.767Z,100744.28
2022-11-05T10:24:43.116Z,100756.63
2022-11-05T10:27:18.092Z,100793.69
2022-11-05T10:29:47.776Z,100813.91
2022-11-05T10:32:24.881Z,100786.53
2022-11-05T10:34:55.271Z,100797.06
2022-11-05T10:37:25.777Z,100828.78
2022-11-05T10:39:53.983Z,100889.47
2022-11-05T10:42:48.105Z,100849.72
2022-11-05T10:45:26.754Z,100860.63
2022-11-05T10:48:06.805Z,100864.09
2022-11-05T10:50:35.481Z,100831.47
2022-11-05T10:53:12.969Z,100843.94
2022-11-05T10:55:44.648Z,100859.84
2022-11-05T10:58:21.613Z,100916.88
2022-11-05T11:01:04.738Z,100961.78
2022-11-05T11:03:43.223Z,100952.81
2022-11-05T11:06:25.331Z,100956.38
2022-11-05T11:08:57.873Z,100960.63
2022-11-05T11:11:28.946Z,100966.81
2022-11-05T11:14:03.693Z,100987.16
2022-11-05T11:16:37.826Z,100983.78
2022-11-05T11:19:24.885Z,100989.75
2022-11-05T11:22:14.856Z,100982.91
2022-11-05T11:24:47.000Z,101046.34
2022-11-05T11:27:18.706Z,101085.03
2022-11-05T11:29:50.976Z,101065.09
2022-11-05T11:32:21.724Z,101090.44
2022-11-05T11:34:55.533Z,101108.22
2022-11-05T11:37:27.036Z,101052.53
2022-11-05T11:40:00.286Z,101063.28
2022-11-05T11:42:32.245Z,101047.41
2022-11-05T11:45:05.342Z,101088.94
2022-11-05T11:47:34.597Z,101069.53
2022-11-05T11:50:04.250Z,101042.38
2022-11-05T11:52:34.233Z,101055.44
2022-11-05T11:55:23.133Z,101043.09
2022-11-05T11:57:56.518Z,101074.09
2022-11-05T12:00:31.961Z,101072.44
2022-11-05T12:03:24.459Z,101103.19
2022-11-05T12:06:02.015Z,101111.88
2022-11-05T12:08:45.854Z,101110.97
2022-11-05T12:11:25.652Z,101080.28
2022-11-05T12:14:07.315Z,101074.94
2022-11-05T12:17:07.175Z,101074.94
2022-11-05T12:20:01.902Z,101026.44
2022-11-05T12:23:02.753Z,101052.03
2022-11-05T12:25:42.005Z,101079.50
2022-11-05T12:29:16.821Z,101097.94
2022-11-05T12:31:45.958Z,101136.63
2022-11-05T12:34:28.915Z,101124.25
2022-11-05T12:37:30.254Z,101103.06
2022-11-05T12:40:48.571Z,101145.34
2022-11-05T12:43:33.644Z,101092.63
2022-11-05T12:46:13.134Z,101095.34
2022-11-05T12:49:03.594Z,101125.13
2022-11-05T12:51:51.500Z,101100.25
2022-11-05T12:54:38.571Z,101121.38
2022-11-05T12:57:10.461Z,101110.84
2022-11-05T12:59:45.485Z,101092.34
2022-11-05T13:02:26.273Z,101030.50
2022-11-05T13:05:02.693Z,101069.16
2022-11-05T13:07:40.162Z,101078.25
2022-11-05T13:10:26.541Z,101137.31
2022-11-05T13:13:11.552Z,101090.59
2022-11-05T13:15:50.957Z,101041.16
2022-11-05T13:18:33.164Z,101011.97
2022-11-05T13:21:06.863Z,101065.88
2022-11-05T13:23:42.239Z,101047.72
2022-11-05T13:26:23.238Z,101054.41
2022-11-05T13:29:01.076Z,101039.50
2022-11-05T13:31:37.068Z,101012.94
2022-11-05T13:34:17.230Z,101050.53
2022-11-05T13:37:10.084Z,101082.50
2022-11-05T13:39:46.964Z,101033.59
2022-11-05T13:42:46.888Z,101012.47
2022-11-05T13:45:46.440Z,100960.31
2022-11-05T13:48:53.452Z,100982.25
2022-11-05T13:51:51.538Z,100959.25
2022-11-05T13:55:02.479Z,100975.28
2022-11-05T13:58:13.416Z,100983.13
2022-11-05T14:00:51.360Z,100984.94
2022-11-05T14:03:24.240Z,100977.03
2022-11-05T14:06:04.296Z,100991.03
2022-11-05T14:08:45.375Z,100977.91
2022-11-05T14:11:22.991Z,100966.41
2022-11-05T14:13:56.083Z,100970.06
2022-11-05T14:16:26.894Z,100984.19
2022-11-05T14:19:16.581Z,100979.72
2022-11-05T14:21:51.558Z,100961.19
2022-11-05T14:24:29.143Z,100929.16
2022-11-05T14:27:52.574Z,100884.38
2022-11-05T14:30:44.048Z,100914.88
2022-11-05T14:33:18.597Z,100946.72
2022-11-05T14:35:46.505Z,100895.34
2022-11-05T14:38:23.196Z,100903.47
2022-11-05T14:41:00.142Z,100914.88
2022-11-05T14:43:30.348Z,100867.41
2022-11-05T14:46:03.401Z,100880.59
2022-11-05T14:48:40.518Z,100899.03
2022-11-05T14:51:26.020Z,100922.03
2022-11-05T14:54:02.222Z,100907.25
2022-11-05T14:56:43.450Z,100894.03
2022-11-05T14:59:33.285Z,100893.91
2022-11-05T15:02:05.263Z,100891.31
2022-11-05T15:04:36.074Z,100904.44
2022-11-05T15:07:30.608Z,100864.09
2022-11-05T15:10:08.870Z,100863.94
2022-11-05T15:12:44.714Z,100847.31
2022-11-05T15:15:33.130Z,100874.53
2022-11-05T15:18:04.860Z,100886.88
2022-11-05T15:20:40.175Z,100878.00
2022-11-05T15:23:13.820Z,100912.94
2022-11-05T15:25:52.734Z,100848.78
2022-11-05T15:28:31.506Z,100889.41
2022-11-05T15:31:01.968Z,100864.69
2022-11-05T15:33:30.949Z,100846.16
2022-11-05T15:36:10.484Z,100858.31
2022-11-05T15:38:38.636Z,100866.25
2022-11-05T15:41:14.696Z,100862.66
2022-11-05T15:43:48.124Z,100891.03
2022-11-05T15:46:18.245Z,100880.41
2022-11-05T15:48:49.721Z,100872.47
2022-11-05T15:51:18.198Z,100855.06
2022-11-05T15:56:51.145Z,100885.03
2022-11-05T15:59:22.140Z,100935.16
2022-11-05T16:01:52.493Z,100893.81
2022-11-05T16:04:23.055Z,100916.78
2022-11-05T16:06:53.850Z,100929.16
2022-11-05T16:09:25.073Z,101015.28
2022-11-05T16:12:14.789Z,100951.06
2022-11-05T16:14:44.203Z,100904.22
2022-11-05T16:17:19.853Z,101016.81
2022-11-05T16:19:48.424Z,100880.50
2022-11-05T16:22:17.027Z,100906.16
2022-11-05T16:24:45.733Z,100847.22
2022-11-05T16:27:19.408Z,100848.19
2022-11-05T16:29:57.264Z,100870.88
2022-11-05T16:32:31.209Z,100885.91
2022-11-05T16:35:02.114Z,100897.50
2022-11-05T16:37:36.752Z,100853.47
2022-11-05T16:40:16.338Z,100815.78
2022-11-05T16:42:50.126Z,100820.00
2022-11-05T16:45:21.907Z,100800.81
2022-11-05T16:47:50.474Z,100832.47
2022-11-05T16:50:23.116Z,100818.38
2022-11-05T16:52:51.937Z,100766.31
2022-11-05T16:55:20.477Z,100805.38
2022-11-05T16:57:53.495Z,100812.97
2022-11-05T17:00:23.959Z,100806.03
2022-11-05T17:02:52.443Z,100798.03
2022-11-05T17:05:32.769Z,100769.78
2022-11-05T17:08:03.455Z,100760.13
2022-11-05T17:10:31.720Z,100776.88
2022-11-05T17:12:59.807Z,100794.47
2022-11-05T17:15:35.682Z,100811.03
2022-11-05T17:18:05.753Z,100799.56
2022-11-05T17:20:40.769Z,100777.66
2022-11-05T17:23:10.717Z,100763.41
2022-11-05T17:25:39.404Z,100755.28
2022-11-05T17:28:08.764Z,100779.22
2022-11-05T17:30:42.209Z,100723.78
2022-11-05T17:33:11.959Z,100774.88
2022-11-05T17:35:41.188Z,100725.63
2022-11-05T17:38:09.785Z,100756.44
2022-11-05T17:40:38.719Z,100751.06
2022-11-05T17:43:07.342Z,100752.03
2022-11-05T17:45:35.742Z,100718.47
2022-11-05T17:48:05.790Z,100758.88
2022-11-05T17:50:33.921Z,100738.72
2022-11-05T17:53:02.109Z,100752.97
2022-11-05T17:55:30.198Z,100754.91
2022-11-05T17:57:58.330Z,100755.13
2022-11-05T18:00:27.192Z,100734.66
2022-11-05T18:02:55.948Z,100736.59
2022-11-05T18:05:27.924Z,100728.69
2022-11-05T18:07:56.524Z,100758.50
2022-11-05T18:10:25.853Z,100743.63
2022-11-05T18:12:53.867Z,100779.81
2022-11-05T18:15:22.506Z,100727.81
2022-11-05T18:17:50.650Z,100728.88
2022-11-05T18:20:19.714Z,100733.13
2022-11-05T18:22:51.042Z,100751.63
2022-11-05T18:25:19.343Z,100756.06
2022-11-05T18:27:47.499Z,100691.88
2022-11-05T18:30:16.047Z,100683.09
2022-11-05T18:32:45.276Z,100737.56
2022-11-05T18:35:13.478Z,100713.72
2022-11-05T18:37:42.219Z,100754.91
2022-11-05T18:40:12.454Z,100723.09
2022-11-05T18:42:41.116Z,100694.94
2022-11-05T18:45:11.301Z,100742.28
2022-11-05T18:47:39.771Z,100701.88
2022-11-05T18:50:09.347Z,100730.03
2022-11-05T18:52:37.778Z,100713.38
2022-11-05T18:55:06.960Z,100717.69
2022-11-05T18:57:36.472Z,100704.50
2022-11-05T19:00:05.453Z,100662.28
2022-11-05T19:02:33.732Z,100653.50
2022-11-05T19:07:50.314Z,100717.69
2022-11-05T19:10:18.656Z,100705.19
2022-11-05T19:12:48.342Z,100680.69
2022-11-05T19:15:16.381Z,100621.81
2022-11-05T19:17:44.599Z,100669.22
2022-11-05T19:20:13.363Z,100652.56
2022-11-05T19:22:41.408Z,100661.31
2022-11-05T19:25:09.741Z,100655.34
2022-11-05T19:27:38.730Z,100661.25
2022-11-05T19:30:09.076Z,100645.41
2022-11-05T19:32:37.190Z,100652.16
2022-11-05T19:35:05.739Z,100624.91
2022-11-05T19:37:33.805Z,100634.25
2022-11-05T19:40:01.794Z,100606.31
2022-11-05T19:42:29.988Z,100613.03
2022-11-05T19:45:06.870Z,100583.19
2022-11-05T19:47:46.553Z,100607.75
2022-11-05T19:50:14.653Z,100550.59
2022-11-05T19:52:42.763Z,100580.41
2022-11-05T19:55:12.312Z,100532.91
2022-11-05T19:57:40.561Z,100538.19
2022-11-05T20:00:10.091Z,100527.78
2022-11-05T20:02:40.004Z,100534.06
2022-11-05T20:05:09.946Z,100572.75
2022-11-05T20:07:38.051Z,100541.16
2022-11-05T20:10:07.336Z,100538.47
2022-11-05T20:12:35.610Z,100538.47
2022-11-05T20:15:04.770Z,100519.03
2022-11-05T20:17:32.963Z,100551.47
2022-11-05T20:20:01.071Z,100572.59
2022-11-05T20:22:30.582Z,100538.28
2022-11-05T20:24:58.636Z,100536.91
2022-11-05T20:27:26.841Z,100560.84
2022-11-05T20:29:54.921Z,100530.97
2022-11-05T20:32:23.090Z,100545.09
2022-11-05T20:34:51.119Z,100518.53
2022-11-05T20:37:19.080Z,100495.81
2022-11-05T20:39:48.611Z,100509.69
2022-11-05T20:42:17.369Z,100536.06
2022-11-05T20:44:45.640Z,100509.88
2022-11-05T20:47:13.739Z,100563.34
2022-11-05T20:49:41.881Z,100537.31
2022-11-05T20:52:10.007Z,100574.34
2022-11-05T20:54:38.479Z,100565.44
2022-11-05T20:57:07.940Z,100539.22
2022-11-05T20:59:36.143Z,100567.34
2022-11-05T21:02:04.414Z,100563.13
2022-11-05T21:04:32.990Z,100518.94
2022-11-05T21:07:01.380Z,100540.97
2022-11-05T21:09:29.698Z,100511.78
2022-11-05T21:12:12.622Z,100500.53
2022-11-05T21:14:44.413Z,100476.09
2022-11-05T21:17:13.545Z,100462.81
2022-11-05T21:19:41.585Z,100472.03
2022-11-05T21:22:09.838Z,100453.56
2022-11-05T21:24:37.931Z,100425.19
2022-11-05T21:27:05.902Z,100409.19
2022-11-05T21:29:34.055Z,100411.13
2022-11-05T21:32:03.635Z,100407.47
2022-11-05T21:34:31.672Z,100389.78
2022-11-05T21:36:59.886Z,100359.06
2022-11-05T21:39:29.020Z,100408.31
2022-11-05T21:41:57.387Z,100417.19
2022-11-05T21:44:25.313Z,100429.88
2022-11-05T21:46:57.174Z,100398.03
2022-11-05T21:49:26.871Z,100431.44
2022-11-05T21:52:12.048Z,100435.09
2022-11-05T21:54:57.515Z,100401.59
2022-11-05T21:57:42.843Z,100418.16
2022-11-05T22:00:12.711Z,100406.78
2022-11-05T22:02:40.778Z,100447.22
2022-11-05T22:05:10.370Z,100382.06
2022-11-05T22:07:40.219Z,100388.13
2022-11-05T22:10:15.857Z,100381.75
2022-11-05T22:12:47.223Z,100362.34
2022-11-05T22:15:15.509Z,100383.28
2022-11-05T22:17:46.959Z,100393.88
2022-11-05T22:20:18.038Z,100344.53
2022-11-05T22:22:46.181Z,100393.72
2022-11-05T22:25:16.780Z,100378.88
2022-11-05T22:27:44.944Z,100342.03
2022-11-05T22:30:14.510Z,100302.13
2022-11-05T22:32:42.650Z,100294.16
2022-11-05T22:35:11.202Z,100372.22
2022-11-05T22:37:40.581Z,100340.56
2022-11-05T22:40:09.692Z,100294.81
2022-11-05T22:42:37.905Z,100294.63
2022-11-05T22:45:07.137Z,100264.06
2022-11-05T22:47:35.178Z,100276.47
2022-11-05T22:50:03.344Z,100303.66
2022-11-05T22:52:32.650Z,100294.91
2022-11-05T22:55:03.599Z,100296.53
2022-11-05T22:57:31.793Z,100259.84
2022-11-05T22:59:59.922Z,100293.19
2022-11-05T23:02:28.154Z,100337.88
2022-11-05T23:04:56.370Z,100354.41
2022-11-05T23:07:42.163Z,100279.81
2022-11-05T23:10:29.158Z,100289.25
2022-11-05T23:12:57.088Z,100320.78
2022-11-05T23:15:42.264Z,100312.31
2022-11-05T23:18:28.406Z,100329.72
2022-11-05T23:21:14.735Z,100273.66
2022-11-05T23:24:02.220Z,100271.91
2022-11-05T23:26:52.342Z,100266.63
2022-11-05T23:29:22.156Z,100271.16
2022-11-05T23:32:08.145Z,100263.28
2022-11-05T23:34:36.475Z,100235.78
2022-11-05T23:37:21.936Z,100266.47
2022-11-05T23:39:50.221Z,100254.44
2022-11-05T23:42:36.974Z,100227.22
2022-11-05T23:45:23.164Z,100257.22
2022-11-05T23:48:08.315Z,100216.75
2022-11-05T23:50:39.726Z,100160.38
2022-11-05T23:53:08.817Z,100175.25
2022-11-05T23:55:37.438Z,100169.84
2022-11-05T23:58:06.686Z,100140.06
